sensor_id;sensor_type;location;lat;lon;timestamp;P1;durP1;ratioP1;P2;durP2;ratioP2
40959;SDS011;27842;52.272;8.052;2023-05-07T00:00:19;24.63;;;14.18;;
40959;SDS011;27842;52.272;8.052;2023-05-07T00:02:44;23.95;;;14.48;;
40959;SDS011;27842;52.272;8.052;2023-05-07T00:05:10;23.27;;;14.27;;
40959;SDS011;27842;52.272;8.052;2023-05-07T00:07:36;21.95;;;13.95;;
40959;SDS011;27842;52.272;8.052;2023-05-07T00:10:02;23.20;;;14.38;;
40959;SDS011;27842;52.272;8.052;2023-05-07T00:12:28;24.50;;;14.70;;
40959;SDS011;27842;52.272;8.052;2023-05-07T00:14:56;24.02;;;14.38;;
40959;SDS011;27842;52.272;8.052;2023-05-07T00:17:22;24.45;;;14.68;;
40959;SDS011;27842;52.272;8.052;2023-05-07T00:19:48;23.90;;;14.95;;
40959;SDS011;27842;52.272;8.052;2023-05-07T00:22:13;23.00;;;15.10;;
40959;SDS011;27842;52.272;8.052;2023-05-07T00:24:39;24.55;;;15.32;;
40959;SDS011;27842;52.272;8.052;2023-05-07T00:27:04;24.67;;;15.38;;
40959;SDS011;27842;52.272;8.052;2023-05-07T00:29:30;23.83;;;14.73;;
40959;SDS011;27842;52.272;8.052;2023-05-07T00:31:56;24.27;;;14.63;;
40959;SDS011;27842;52.272;8.052;2023-05-07T00:34:21;23.17;;;15.10;;
40959;SDS011;27842;52.272;8.052;2023-05-07T00:36:47;25.05;;;15.63;;
40959;SDS011;27842;52.272;8.052;2023-05-07T00:39:13;25.73;;;15.60;;
40959;SDS011;27842;52.272;8.052;2023-05-07T00:41:38;22.63;;;14.88;;
40959;SDS011;27842;52.272;8.052;2023-05-07T00:44:04;25.48;;;15.85;;
40959;SDS011;27842;52.272;8.052;2023-05-07T00:46:30;23.00;;;15.50;;
40959;SDS011;27842;52.272;8.052;2023-05-07T00:48:56;24.55;;;15.45;;
40959;SDS011;27842;52.272;8.052;2023-05-07T00:51:23;25.05;;;15.88;;
40959;SDS011;27842;52.272;8.052;2023-05-07T00:53:50;26.50;;;16.73;;
40959;SDS011;27842;52.272;8.052;2023-05-07T00:56:16;23.92;;;15.95;;
40959;SDS011;27842;52.272;8.052;2023-05-07T00:58:41;24.08;;;15.88;;
40959;SDS011;27842;52.272;8.052;2023-05-07T01:01:07;25.58;;;16.55;;
40959;SDS011;27842;52.272;8.052;2023-05-07T01:03:33;26.08;;;16.60;;
40959;SDS011;27842;52.272;8.052;2023-05-07T01:05:58;24.73;;;17.08;;
40959;SDS011;27842;52.272;8.052;2023-05-07T01:08:26;30.35;;;17.75;;
40959;SDS011;27842;52.272;8.052;2023-05-07T01:10:54;26.88;;;17.50;;
40959;SDS011;27842;52.272;8.052;2023-05-07T01:13:21;27.35;;;17.58;;
40959;SDS011;27842;52.272;8.052;2023-05-07T01:15:47;28.30;;;17.65;;
40959;SDS011;27842;52.272;8.052;2023-05-07T01:18:13;27.60;;;16.77;;
40959;SDS011;27842;52.272;8.052;2023-05-07T01:20:39;28.15;;;18.20;;
40959;SDS011;27842;52.272;8.052;2023-05-07T01:23:04;28.25;;;18.85;;
40959;SDS011;27842;52.272;8.052;2023-05-07T01:25:31;29.10;;;18.25;;
40959;SDS011;27842;52.272;8.052;2023-05-07T01:27:57;27.35;;;18.35;;
40959;SDS011;27842;52.272;8.052;2023-05-07T01:30:25;30.27;;;18.95;;
40959;SDS011;27842;52.272;8.052;2023-05-07T01:32:52;28.80;;;19.80;;
40959;SDS011;27842;52.272;8.052;2023-05-07T01:35:25;31.30;;;19.02;;
40959;SDS011;27842;52.272;8.052;2023-05-07T01:37:53;30.00;;;19.33;;
40959;SDS011;27842;52.272;8.052;2023-05-07T01:40:20;31.75;;;20.67;;
40959;SDS011;27842;52.272;8.052;2023-05-07T01:42:46;36.70;;;20.38;;
40959;SDS011;27842;52.272;8.052;2023-05-07T01:45:13;30.10;;;20.45;;
40959;SDS011;27842;52.272;8.052;2023-05-07T01:47:38;30.00;;;20.50;;
40959;SDS011;27842;52.272;8.052;2023-05-07T01:50:07;30.00;;;20.85;;
40959;SDS011;27842;52.272;8.052;2023-05-07T01:52:35;31.70;;;21.00;;
40959;SDS011;27842;52.272;8.052;2023-05-07T01:55:02;31.20;;;20.23;;
40959;SDS011;27842;52.272;8.052;2023-05-07T01:57:29;28.85;;;19.90;;
40959;SDS011;27842;52.272;8.052;2023-05-07T01:59:54;32.22;;;21.17;;
40959;SDS011;27842;52.272;8.052;2023-05-07T02:02:20;31.80;;;21.30;;
40959;SDS011;27842;52.272;8.052;2023-05-07T02:04:45;32.13;;;21.65;;
40959;SDS011;27842;52.272;8.052;2023-05-07T02:07:11;33.45;;;22.10;;
40959;SDS011;27842;52.272;8.052;2023-05-07T02:09:36;31.83;;;21.67;;
40959;SDS011;27842;52.272;8.052;2023-05-07T02:12:03;30.42;;;20.92;;
40959;SDS011;27842;52.272;8.052;2023-05-07T02:14:29;32.85;;;22.08;;
40959;SDS011;27842;52.272;8.052;2023-05-07T02:16:54;31.08;;;21.75;;
40959;SDS011;27842;52.272;8.052;2023-05-07T02:19:20;33.80;;;22.65;;
40959;SDS011;27842;52.272;8.052;2023-05-07T02:21:46;33.20;;;23.23;;
40959;SDS011;27842;52.272;8.052;2023-05-07T02:24:12;32.83;;;22.45;;
40959;SDS011;27842;52.272;8.052;2023-05-07T02:26:38;32.10;;;22.42;;
40959;SDS011;27842;52.272;8.052;2023-05-07T02:29:04;35.08;;;23.45;;
40959;SDS011;27842;52.272;8.052;2023-05-07T02:31:30;35.30;;;23.02;;
40959;SDS011;27842;52.272;8.052;2023-05-07T02:33:56;33.72;;;23.10;;
40959;SDS011;27842;52.272;8.052;2023-05-07T02:36:21;36.00;;;23.73;;
40959;SDS011;27842;52.272;8.052;2023-05-07T02:38:47;34.38;;;23.77;;
40959;SDS011;27842;52.272;8.052;2023-05-07T02:41:12;35.63;;;24.40;;
40959;SDS011;27842;52.272;8.052;2023-05-07T02:43:38;33.35;;;22.83;;
40959;SDS011;27842;52.272;8.052;2023-05-07T02:46:04;33.15;;;22.30;;
40959;SDS011;27842;52.272;8.052;2023-05-07T02:48:31;33.20;;;23.20;;
40959;SDS011;27842;52.272;8.052;2023-05-07T02:50:57;35.63;;;24.25;;
40959;SDS011;27842;52.272;8.052;2023-05-07T02:53:23;34.05;;;23.48;;
40959;SDS011;27842;52.272;8.052;2023-05-07T02:55:51;33.60;;;23.92;;
40959;SDS011;27842;52.272;8.052;2023-05-07T02:58:23;32.65;;;21.88;;
40959;SDS011;27842;52.272;8.052;2023-05-07T03:00:49;34.08;;;23.80;;
40959;SDS011;27842;52.272;8.052;2023-05-07T03:03:15;33.83;;;24.05;;
40959;SDS011;27842;52.272;8.052;2023-05-07T03:05:41;33.85;;;24.73;;
40959;SDS011;27842;52.272;8.052;2023-05-07T03:08:07;32.65;;;23.73;;
40959;SDS011;27842;52.272;8.052;2023-05-07T03:10:33;34.80;;;23.50;;
40959;SDS011;27842;52.272;8.052;2023-05-07T03:12:58;34.83;;;24.02;;
40959;SDS011;27842;52.272;8.052;2023-05-07T03:15:24;35.08;;;24.98;;
40959;SDS011;27842;52.272;8.052;2023-05-07T03:17:50;34.00;;;23.42;;
40959;SDS011;27842;52.272;8.052;2023-05-07T03:20:15;36.05;;;25.45;;
40959;SDS011;27842;52.272;8.052;2023-05-07T03:22:41;35.92;;;25.83;;
40959;SDS011;27842;52.272;8.052;2023-05-07T03:25:07;39.17;;;26.73;;
40959;SDS011;27842;52.272;8.052;2023-05-07T03:27:33;36.92;;;26.88;;
40959;SDS011;27842;52.272;8.052;2023-05-07T03:29:59;36.90;;;26.63;;
40959;SDS011;27842;52.272;8.052;2023-05-07T03:32:25;37.97;;;27.48;;
40959;SDS011;27842;52.272;8.052;2023-05-07T03:34:50;38.72;;;27.33;;
40959;SDS011;27842;52.272;8.052;2023-05-07T03:37:16;40.88;;;28.10;;
40959;SDS011;27842;52.272;8.052;2023-05-07T03:39:42;37.70;;;27.05;;
40959;SDS011;27842;52.272;8.052;2023-05-07T03:42:07;39.17;;;27.65;;
40959;SDS011;27842;52.272;8.052;2023-05-07T03:44:33;38.42;;;26.85;;
40959;SDS011;27842;52.272;8.052;2023-05-07T03:46:58;37.83;;;27.17;;
40959;SDS011;27842;52.272;8.052;2023-05-07T03:49:24;38.10;;;27.75;;
40959;SDS011;27842;52.272;8.052;2023-05-07T03:51:50;37.80;;;26.42;;
40959;SDS011;27842;52.272;8.052;2023-05-07T03:54:15;38.13;;;27.00;;
40959;SDS011;27842;52.272;8.052;2023-05-07T03:56:41;37.67;;;27.80;;
40959;SDS011;27842;52.272;8.052;2023-05-07T03:59:06;39.70;;;27.02;;
40959;SDS011;27842;52.272;8.052;2023-05-07T04:01:32;37.83;;;27.77;;
40959;SDS011;27842;52.272;8.052;2023-05-07T04:03:58;39.85;;;27.17;;
40959;SDS011;27842;52.272;8.052;2023-05-07T04:06:23;38.25;;;26.42;;
40959;SDS011;27842;52.272;8.052;2023-05-07T04:08:49;38.80;;;27.25;;
40959;SDS011;27842;52.272;8.052;2023-05-07T04:11:15;35.55;;;26.67;;
40959;SDS011;27842;52.272;8.052;2023-05-07T04:13:40;40.40;;;28.27;;
40959;SDS011;27842;52.272;8.052;2023-05-07T04:16:06;37.63;;;27.25;;
40959;SDS011;27842;52.272;8.052;2023-05-07T04:18:31;40.78;;;28.95;;
40959;SDS011;27842;52.272;8.052;2023-05-07T04:20:57;38.63;;;27.88;;
40959;SDS011;27842;52.272;8.052;2023-05-07T04:23:23;40.45;;;28.52;;
40959;SDS011;27842;52.272;8.052;2023-05-07T04:25:48;39.25;;;28.10;;
40959;SDS011;27842;52.272;8.052;2023-05-07T04:28:15;39.50;;;27.05;;
40959;SDS011;27842;52.272;8.052;2023-05-07T04:30:40;41.83;;;27.98;;
40959;SDS011;27842;52.272;8.052;2023-05-07T04:33:06;38.28;;;26.67;;
40959;SDS011;27842;52.272;8.052;2023-05-07T04:35:32;38.92;;;27.52;;
40959;SDS011;27842;52.272;8.052;2023-05-07T04:37:58;36.35;;;25.63;;
40959;SDS011;27842;52.272;8.052;2023-05-07T04:40:23;37.38;;;26.15;;
40959;SDS011;27842;52.272;8.052;2023-05-07T04:42:49;38.40;;;26.65;;
40959;SDS011;27842;52.272;8.052;2023-05-07T04:45:15;36.33;;;26.00;;
40959;SDS011;27842;52.272;8.052;2023-05-07T04:47:40;37.58;;;26.17;;
40959;SDS011;27842;52.272;8.052;2023-05-07T04:50:06;37.55;;;25.75;;
40959;SDS011;27842;52.272;8.052;2023-05-07T04:52:33;35.40;;;25.67;;
40959;SDS011;27842;52.272;8.052;2023-05-07T04:54:59;37.60;;;26.00;;
40959;SDS011;27842;52.272;8.052;2023-05-07T04:57:25;35.42;;;24.88;;
40959;SDS011;27842;52.272;8.052;2023-05-07T04:59:51;36.10;;;25.40;;
40959;SDS011;27842;52.272;8.052;2023-05-07T05:02:18;37.42;;;25.13;;
40959;SDS011;27842;52.272;8.052;2023-05-07T05:04:43;35.58;;;25.77;;
40959;SDS011;27842;52.272;8.052;2023-05-07T05:07:09;35.97;;;25.60;;
40959;SDS011;27842;52.272;8.052;2023-05-07T05:09:34;35.58;;;26.08;;
40959;SDS011;27842;52.272;8.052;2023-05-07T05:12:00;35.25;;;25.33;;
40959;SDS011;27842;52.272;8.052;2023-05-07T05:14:25;37.47;;;25.08;;
40959;SDS011;27842;52.272;8.052;2023-05-07T05:16:51;35.35;;;24.40;;
40959;SDS011;27842;52.272;8.052;2023-05-07T05:19:17;37.92;;;25.35;;
40959;SDS011;27842;52.272;8.052;2023-05-07T05:21:42;35.35;;;25.50;;
40959;SDS011;27842;52.272;8.052;2023-05-07T05:24:08;36.95;;;25.05;;
40959;SDS011;27842;52.272;8.052;2023-05-07T05:26:39;35.03;;;24.33;;
40959;SDS011;27842;52.272;8.052;2023-05-07T05:29:05;35.80;;;24.83;;
40959;SDS011;27842;52.272;8.052;2023-05-07T05:31:31;36.40;;;23.73;;
40959;SDS011;27842;52.272;8.052;2023-05-07T05:33:57;34.63;;;23.95;;
40959;SDS011;27842;52.272;8.052;2023-05-07T05:36:22;36.85;;;24.05;;
40959;SDS011;27842;52.272;8.052;2023-05-07T05:38:48;32.85;;;23.55;;
40959;SDS011;27842;52.272;8.052;2023-05-07T05:41:13;35.58;;;24.05;;
40959;SDS011;27842;52.272;8.052;2023-05-07T05:43:39;34.85;;;22.70;;
40959;SDS011;27842;52.272;8.052;2023-05-07T05:46:04;32.35;;;23.08;;
40959;SDS011;27842;52.272;8.052;2023-05-07T05:48:31;31.77;;;21.35;;
40959;SDS011;27842;52.272;8.052;2023-05-07T05:50:56;33.60;;;22.30;;
40959;SDS011;27842;52.272;8.052;2023-05-07T05:53:22;33.50;;;22.83;;
40959;SDS011;27842;52.272;8.052;2023-05-07T05:55:47;35.17;;;23.98;;
40959;SDS011;27842;52.272;8.052;2023-05-07T05:58:13;35.80;;;23.42;;
40959;SDS011;27842;52.272;8.052;2023-05-07T06:00:40;32.47;;;22.80;;
40959;SDS011;27842;52.272;8.052;2023-05-07T06:03:05;34.47;;;22.08;;
40959;SDS011;27842;52.272;8.052;2023-05-07T06:05:31;34.90;;;22.83;;
40959;SDS011;27842;52.272;8.052;2023-05-07T06:07:56;33.00;;;21.40;;
40959;SDS011;27842;52.272;8.052;2023-05-07T06:10:22;34.35;;;21.83;;
40959;SDS011;27842;52.272;8.052;2023-05-07T06:12:49;33.30;;;21.20;;
40959;SDS011;27842;52.272;8.052;2023-05-07T06:15:14;31.00;;;20.95;;
40959;SDS011;27842;52.272;8.052;2023-05-07T06:17:40;30.52;;;20.67;;
40959;SDS011;27842;52.272;8.052;2023-05-07T06:20:05;31.30;;;20.02;;
40959;SDS011;27842;52.272;8.052;2023-05-07T06:22:32;32.33;;;21.48;;
40959;SDS011;27842;52.272;8.052;2023-05-07T06:24:57;29.77;;;19.55;;
40959;SDS011;27842;52.272;8.052;2023-05-07T06:27:23;29.88;;;19.95;;
40959;SDS011;27842;52.272;8.052;2023-05-07T06:29:48;33.60;;;20.48;;
40959;SDS011;27842;52.272;8.052;2023-05-07T06:32:14;32.42;;;19.88;;
40959;SDS011;27842;52.272;8.052;2023-05-07T06:34:40;30.02;;;19.10;;
40959;SDS011;27842;52.272;8.052;2023-05-07T06:37:06;31.60;;;19.75;;
40959;SDS011;27842;52.272;8.052;2023-05-07T06:39:32;30.38;;;19.73;;
40959;SDS011;27842;52.272;8.052;2023-05-07T06:41:57;29.17;;;18.75;;
40959;SDS011;27842;52.272;8.052;2023-05-07T06:44:24;30.05;;;19.00;;
40959;SDS011;27842;52.272;8.052;2023-05-07T06:46:50;29.65;;;19.50;;
40959;SDS011;27842;52.272;8.052;2023-05-07T06:49:15;30.73;;;19.05;;
40959;SDS011;27842;52.272;8.052;2023-05-07T06:51:41;31.40;;;18.98;;
40959;SDS011;27842;52.272;8.052;2023-05-07T06:54:06;29.98;;;18.88;;
40959;SDS011;27842;52.272;8.052;2023-05-07T06:56:32;28.42;;;18.35;;
40959;SDS011;27842;52.272;8.052;2023-05-07T06:58:59;28.38;;;18.90;;
40959;SDS011;27842;52.272;8.052;2023-05-07T07:01:25;29.45;;;19.15;;
40959;SDS011;27842;52.272;8.052;2023-05-07T07:03:51;27.63;;;18.25;;
40959;SDS011;27842;52.272;8.052;2023-05-07T07:06:16;27.42;;;17.70;;
40959;SDS011;27842;52.272;8.052;2023-05-07T07:08:42;27.75;;;18.17;;
40959;SDS011;27842;52.272;8.052;2023-05-07T07:11:08;28.63;;;17.90;;
40959;SDS011;27842;52.272;8.052;2023-05-07T07:13:35;26.20;;;16.63;;
40959;SDS011;27842;52.272;8.052;2023-05-07T07:16:00;29.77;;;18.48;;
40959;SDS011;27842;52.272;8.052;2023-05-07T07:18:26;27.88;;;17.38;;
40959;SDS011;27842;52.272;8.052;2023-05-07T07:20:52;27.80;;;17.13;;
40959;SDS011;27842;52.272;8.052;2023-05-07T07:23:17;28.40;;;17.85;;
40959;SDS011;27842;52.272;8.052;2023-05-07T07:25:43;27.33;;;18.02;;
40959;SDS011;27842;52.272;8.052;2023-05-07T07:28:09;27.45;;;17.13;;
40959;SDS011;27842;52.272;8.052;2023-05-07T07:30:35;25.38;;;16.90;;
40959;SDS011;27842;52.272;8.052;2023-05-07T07:33:02;27.92;;;17.73;;
40959;SDS011;27842;52.272;8.052;2023-05-07T07:35:34;26.85;;;17.55;;
40959;SDS011;27842;52.272;8.052;2023-05-07T07:38:00;26.77;;;16.88;;
40959;SDS011;27842;52.272;8.052;2023-05-07T07:40:26;28.45;;;17.63;;
40959;SDS011;27842;52.272;8.052;2023-05-07T07:42:52;28.00;;;16.95;;
40959;SDS011;27842;52.272;8.052;2023-05-07T07:45:18;25.88;;;16.15;;
40959;SDS011;27842;52.272;8.052;2023-05-07T07:47:43;26.08;;;15.88;;
40959;SDS011;27842;52.272;8.052;2023-05-07T07:50:09;26.20;;;16.52;;
40959;SDS011;27842;52.272;8.052;2023-05-07T07:52:35;26.88;;;16.92;;
40959;SDS011;27842;52.272;8.052;2023-05-07T07:55:03;25.45;;;16.30;;
40959;SDS011;27842;52.272;8.052;2023-05-07T07:57:30;27.83;;;16.50;;
40959;SDS011;27842;52.272;8.052;2023-05-07T07:59:57;25.58;;;16.85;;
40959;SDS011;27842;52.272;8.052;2023-05-07T08:02:24;26.50;;;16.95;;
40959;SDS011;27842;52.272;8.052;2023-05-07T08:04:50;26.23;;;16.52;;
40959;SDS011;27842;52.272;8.052;2023-05-07T08:07:16;25.13;;;16.02;;
40959;SDS011;27842;52.272;8.052;2023-05-07T08:09:43;24.73;;;16.38;;
40959;SDS011;27842;52.272;8.052;2023-05-07T08:12:09;25.50;;;16.33;;
40959;SDS011;27842;52.272;8.052;2023-05-07T08:14:35;27.05;;;16.70;;
40959;SDS011;27842;52.272;8.052;2023-05-07T08:17:01;25.70;;;16.60;;
40959;SDS011;27842;52.272;8.052;2023-05-07T08:19:27;25.52;;;15.70;;
40959;SDS011;27842;52.272;8.052;2023-05-07T08:21:52;28.05;;;16.67;;
40959;SDS011;27842;52.272;8.052;2023-05-07T08:24:18;26.35;;;15.80;;
40959;SDS011;27842;52.272;8.052;2023-05-07T08:26:43;25.02;;;15.77;;
40959;SDS011;27842;52.272;8.052;2023-05-07T08:29:10;23.70;;;15.55;;
40959;SDS011;27842;52.272;8.052;2023-05-07T08:31:35;26.42;;;15.40;;
40959;SDS011;27842;52.272;8.052;2023-05-07T08:34:01;23.15;;;14.02;;
40959;SDS011;27842;52.272;8.052;2023-05-07T08:36:28;25.02;;;15.30;;
40959;SDS011;27842;52.272;8.052;2023-05-07T08:38:53;24.45;;;14.63;;
40959;SDS011;27842;52.272;8.052;2023-05-07T08:41:19;24.92;;;14.52;;
40959;SDS011;27842;52.272;8.052;2023-05-07T08:43:46;23.67;;;14.68;;
40959;SDS011;27842;52.272;8.052;2023-05-07T08:46:16;24.00;;;14.30;;
40959;SDS011;27842;52.272;8.052;2023-05-07T08:48:44;23.88;;;14.35;;
40959;SDS011;27842;52.272;8.052;2023-05-07T08:51:15;24.60;;;15.35;;
40959;SDS011;27842;52.272;8.052;2023-05-07T08:53:42;23.40;;;14.32;;
40959;SDS011;27842;52.272;8.052;2023-05-07T08:56:08;23.42;;;14.00;;
40959;SDS011;27842;52.272;8.052;2023-05-07T08:58:34;22.70;;;14.05;;
40959;SDS011;27842;52.272;8.052;2023-05-07T09:01:01;23.27;;;14.05;;
40959;SDS011;27842;52.272;8.052;2023-05-07T09:03:31;22.55;;;13.40;;
40959;SDS011;27842;52.272;8.052;2023-05-07T09:05:57;22.88;;;14.10;;
40959;SDS011;27842;52.272;8.052;2023-05-07T09:08:26;24.08;;;14.40;;
40959;SDS011;27842;52.272;8.052;2023-05-07T09:10:52;20.90;;;12.90;;
40959;SDS011;27842;52.272;8.052;2023-05-07T09:13:18;22.42;;;13.65;;
40959;SDS011;27842;52.272;8.052;2023-05-07T09:15:44;22.70;;;13.52;;
40959;SDS011;27842;52.272;8.052;2023-05-07T09:18:10;22.80;;;14.20;;
40959;SDS011;27842;52.272;8.052;2023-05-07T09:20:37;21.60;;;13.52;;
40959;SDS011;27842;52.272;8.052;2023-05-07T09:23:03;21.05;;;13.13;;
40959;SDS011;27842;52.272;8.052;2023-05-07T09:25:30;23.70;;;13.35;;
40959;SDS011;27842;52.272;8.052;2023-05-07T09:28:02;21.65;;;12.48;;
40959;SDS011;27842;52.272;8.052;2023-05-07T09:30:29;23.15;;;12.50;;
40959;SDS011;27842;52.272;8.052;2023-05-07T09:32:58;22.08;;;13.00;;
40959;SDS011;27842;52.272;8.052;2023-05-07T09:35:25;22.52;;;13.23;;
40959;SDS011;27842;52.272;8.052;2023-05-07T09:37:55;23.02;;;12.95;;
40959;SDS011;27842;52.272;8.052;2023-05-07T09:40:21;22.75;;;12.82;;
40959;SDS011;27842;52.272;8.052;2023-05-07T09:42:52;21.63;;;12.85;;
40959;SDS011;27842;52.272;8.052;2023-05-07T09:45:28;22.90;;;13.20;;
40959;SDS011;27842;52.272;8.052;2023-05-07T09:47:54;22.75;;;12.73;;
40959;SDS011;27842;52.272;8.052;2023-05-07T09:50:22;22.38;;;12.65;;
40959;SDS011;27842;52.272;8.052;2023-05-07T09:52:53;23.50;;;12.98;;
40959;SDS011;27842;52.272;8.052;2023-05-07T09:55:20;22.13;;;12.70;;
40959;SDS011;27842;52.272;8.052;2023-05-07T09:57:46;21.00;;;12.73;;
40959;SDS011;27842;52.272;8.052;2023-05-07T10:00:17;22.52;;;13.02;;
40959;SDS011;27842;52.272;8.052;2023-05-07T10:02:45;21.25;;;12.50;;
40959;SDS011;27842;52.272;8.052;2023-05-07T10:05:14;21.10;;;11.40;;
40959;SDS011;27842;52.272;8.052;2023-05-07T10:07:40;21.40;;;12.50;;
40959;SDS011;27842;52.272;8.052;2023-05-07T10:10:06;21.30;;;11.82;;
40959;SDS011;27842;52.272;8.052;2023-05-07T10:12:32;20.25;;;11.40;;
40959;SDS011;27842;52.272;8.052;2023-05-07T10:15:05;20.38;;;11.32;;
40959;SDS011;27842;52.272;8.052;2023-05-07T10:17:32;20.08;;;11.23;;
40959;SDS011;27842;52.272;8.052;2023-05-07T10:20:00;19.63;;;11.27;;
40959;SDS011;27842;52.272;8.052;2023-05-07T10:22:26;20.10;;;10.90;;
40959;SDS011;27842;52.272;8.052;2023-05-07T10:24:53;19.70;;;11.18;;
40959;SDS011;27842;52.272;8.052;2023-05-07T10:27:23;19.35;;;11.43;;
40959;SDS011;27842;52.272;8.052;2023-05-07T10:32:56;23.45;;;11.45;;
40959;SDS011;27842;52.272;8.052;2023-05-07T10:35:30;19.42;;;10.18;;
40959;SDS011;27842;52.272;8.052;2023-05-07T10:38:01;20.92;;;11.07;;
40959;SDS011;27842;52.272;8.052;2023-05-07T10:40:27;19.35;;;10.15;;
40959;SDS011;27842;52.272;8.052;2023-05-07T10:42:59;18.50;;;9.23;;
40959;SDS011;27842;52.272;8.052;2023-05-07T10:45:27;18.40;;;9.75;;
40959;SDS011;27842;52.272;8.052;2023-05-07T10:50:39;18.23;;;9.85;;
40959;SDS011;27842;52.272;8.052;2023-05-07T10:56:29;17.80;;;9.70;;
40959;SDS011;27842;52.272;8.052;2023-05-07T10:58:41;16.67;;;8.52;;
40959;SDS011;27842;52.272;8.052;2023-05-07T11:01:07;18.88;;;8.93;;
40959;SDS011;27842;52.272;8.052;2023-05-07T11:03:32;17.15;;;9.38;;
40959;SDS011;27842;52.272;8.052;2023-05-07T11:06:14;17.40;;;9.00;;
40959;SDS011;27842;52.272;8.052;2023-05-07T11:08:56;16.70;;;9.32;;
40959;SDS011;27842;52.272;8.052;2023-05-07T11:17:07;17.20;;;8.13;;
40959;SDS011;27842;52.272;8.052;2023-05-07T11:19:50;16.10;;;8.05;;
40959;SDS011;27842;52.272;8.052;2023-05-07T11:25:01;15.73;;;7.70;;
40959;SDS011;27842;52.272;8.052;2023-05-07T11:27:31;15.48;;;7.50;;
40959;SDS011;27842;52.272;8.052;2023-05-07T11:29:57;15.98;;;7.90;;
40959;SDS011;27842;52.272;8.052;2023-05-07T11:32:27;16.25;;;7.97;;
40959;SDS011;27842;52.272;8.052;2023-05-07T11:34:54;16.85;;;7.18;;
40959;SDS011;27842;52.272;8.052;2023-05-07T11:37:22;15.30;;;7.32;;
40959;SDS011;27842;52.272;8.052;2023-05-07T11:39:48;16.02;;;8.20;;
40959;SDS011;27842;52.272;8.052;2023-05-07T11:45:22;16.33;;;8.55;;
40959;SDS011;27842;52.272;8.052;2023-05-07T11:47:51;19.25;;;7.88;;
40959;SDS011;27842;52.272;8.052;2023-05-07T11:50:17;15.50;;;7.53;;
40959;SDS011;27842;52.272;8.052;2023-05-07T11:52:49;16.50;;;7.47;;
40959;SDS011;27842;52.272;8.052;2023-05-07T11:55:18;16.23;;;8.18;;
40959;SDS011;27842;52.272;8.052;2023-05-07T11:57:43;17.25;;;8.68;;
40959;SDS011;27842;52.272;8.052;2023-05-07T12:00:10;16.50;;;8.40;;
40959;SDS011;27842;52.272;8.052;2023-05-07T12:02:36;17.40;;;8.52;;
40959;SDS011;27842;52.272;8.052;2023-05-07T12:05:01;16.17;;;7.97;;
40959;SDS011;27842;52.272;8.052;2023-05-07T12:07:27;16.27;;;7.70;;
40959;SDS011;27842;52.272;8.052;2023-05-07T12:09:53;15.95;;;7.72;;
40959;SDS011;27842;52.272;8.052;2023-05-07T12:12:19;16.13;;;8.35;;
40959;SDS011;27842;52.272;8.052;2023-05-07T12:14:45;15.63;;;7.95;;
40959;SDS011;27842;52.272;8.052;2023-05-07T12:17:11;16.92;;;8.32;;
40959;SDS011;27842;52.272;8.052;2023-05-07T12:19:38;16.42;;;8.00;;
40959;SDS011;27842;52.272;8.052;2023-05-07T12:22:09;19.15;;;9.30;;
40959;SDS011;27842;52.272;8.052;2023-05-07T12:24:48;15.57;;;7.80;;
40959;SDS011;27842;52.272;8.052;2023-05-07T12:27:25;15.90;;;7.93;;
40959;SDS011;27842;52.272;8.052;2023-05-07T12:29:51;16.02;;;7.53;;
40959;SDS011;27842;52.272;8.052;2023-05-07T12:32:18;16.30;;;7.70;;
40959;SDS011;27842;52.272;8.052;2023-05-07T12:34:44;15.77;;;7.03;;
40959;SDS011;27842;52.272;8.052;2023-05-07T12:37:11;14.38;;;7.05;;
40959;SDS011;27842;52.272;8.052;2023-05-07T12:39:37;15.18;;;7.05;;
40959;SDS011;27842;52.272;8.052;2023-05-07T12:42:03;14.35;;;7.15;;
40959;SDS011;27842;52.272;8.052;2023-05-07T12:44:29;14.90;;;7.43;;
40959;SDS011;27842;52.272;8.052;2023-05-07T12:47:02;17.58;;;6.85;;
40959;SDS011;27842;52.272;8.052;2023-05-07T12:49:28;14.65;;;6.90;;
40959;SDS011;27842;52.272;8.052;2023-05-07T12:51:54;14.25;;;6.85;;
40959;SDS011;27842;52.272;8.052;2023-05-07T12:54:33;15.05;;;6.65;;
40959;SDS011;27842;52.272;8.052;2023-05-07T12:57:05;14.38;;;6.55;;
40959;SDS011;27842;52.272;8.052;2023-05-07T12:59:39;15.13;;;6.40;;
40959;SDS011;27842;52.272;8.052;2023-05-07T13:02:06;12.85;;;5.95;;
40959;SDS011;27842;52.272;8.052;2023-05-07T13:04:32;13.48;;;5.68;;
40959;SDS011;27842;52.272;8.052;2023-05-07T13:06:59;12.50;;;5.82;;
40959;SDS011;27842;52.272;8.052;2023-05-07T13:09:25;12.70;;;5.90;;
40959;SDS011;27842;52.272;8.052;2023-05-07T13:11:51;12.05;;;5.35;;
40959;SDS011;27842;52.272;8.052;2023-05-07T13:14:16;13.07;;;5.88;;
40959;SDS011;27842;52.272;8.052;2023-05-07T13:16:42;12.68;;;5.70;;
40959;SDS011;27842;52.272;8.052;2023-05-07T13:19:07;12.73;;;5.95;;
40959;SDS011;27842;52.272;8.052;2023-05-07T13:21:33;12.13;;;5.55;;
40959;SDS011;27842;52.272;8.052;2023-05-07T13:23:59;12.75;;;5.45;;
40959;SDS011;27842;52.272;8.052;2023-05-07T13:26:25;12.25;;;5.07;;
40959;SDS011;27842;52.272;8.052;2023-05-07T13:28:52;11.63;;;4.90;;
40959;SDS011;27842;52.272;8.052;2023-05-07T13:31:18;13.95;;;4.90;;
40959;SDS011;27842;52.272;8.052;2023-05-07T13:33:45;14.40;;;5.28;;
40959;SDS011;27842;52.272;8.052;2023-05-07T13:36:10;10.80;;;4.70;;
40959;SDS011;27842;52.272;8.052;2023-05-07T13:38:36;13.23;;;5.40;;
40959;SDS011;27842;52.272;8.052;2023-05-07T13:41:01;11.85;;;5.40;;
40959;SDS011;27842;52.272;8.052;2023-05-07T13:43:27;12.02;;;5.13;;
40959;SDS011;27842;52.272;8.052;2023-05-07T13:45:52;12.75;;;5.72;;
40959;SDS011;27842;52.272;8.052;2023-05-07T13:48:18;11.05;;;5.13;;
40959;SDS011;27842;52.272;8.052;2023-05-07T13:50:43;11.20;;;4.95;;
40959;SDS011;27842;52.272;8.052;2023-05-07T13:53:09;9.50;;;4.55;;
40959;SDS011;27842;52.272;8.052;2023-05-07T13:55:35;10.18;;;4.90;;
40959;SDS011;27842;52.272;8.052;2023-05-07T13:58:01;10.90;;;5.15;;
40959;SDS011;27842;52.272;8.052;2023-05-07T14:00:28;10.80;;;4.53;;
40959;SDS011;27842;52.272;8.052;2023-05-07T14:02:54;8.55;;;4.35;;
40959;SDS011;27842;52.272;8.052;2023-05-07T14:05:20;13.57;;;5.47;;
40959;SDS011;27842;52.272;8.052;2023-05-07T14:07:48;11.07;;;4.85;;
40959;SDS011;27842;52.272;8.052;2023-05-07T14:10:16;11.52;;;4.72;;
40959;SDS011;27842;52.272;8.052;2023-05-07T14:12:43;10.43;;;4.72;;
40959;SDS011;27842;52.272;8.052;2023-05-07T14:15:09;11.27;;;4.85;;
40959;SDS011;27842;52.272;8.052;2023-05-07T14:17:35;11.35;;;3.90;;
40959;SDS011;27842;52.272;8.052;2023-05-07T14:20:01;13.23;;;5.18;;
40959;SDS011;27842;52.272;8.052;2023-05-07T14:22:27;11.13;;;5.18;;
40959;SDS011;27842;52.272;8.052;2023-05-07T14:24:53;9.38;;;4.40;;
40959;SDS011;27842;52.272;8.052;2023-05-07T14:27:18;12.23;;;5.53;;
40959;SDS011;27842;52.272;8.052;2023-05-07T14:29:44;10.32;;;4.97;;
40959;SDS011;27842;52.272;8.052;2023-05-07T14:32:10;12.40;;;4.90;;
40959;SDS011;27842;52.272;8.052;2023-05-07T14:34:36;13.23;;;5.25;;
40959;SDS011;27842;52.272;8.052;2023-05-07T14:37:03;9.90;;;4.68;;
40959;SDS011;27842;52.272;8.052;2023-05-07T14:39:28;12.23;;;5.10;;
40959;SDS011;27842;52.272;8.052;2023-05-07T14:41:54;11.38;;;5.07;;